Time;durP1;ratioP1;P1;durP2;ratioP2;P2;SDS_P1;SDS_P2;PMS_P1;PMS_P2;Temp;Humidity;BMP_temperature;BMP_pressure;BME280_temperature;BME280_humidity;BME280_pressure;Samples;Min_cycle;Max_cycle;Signal;HPM_P1;HPM_P2
2022/10/29 00:00:05;;;;;;;19.50;14.80;;;18.60;99.90;;;;;;5023663;28;20569;-85
2022/10/29 00:02:33;;;;;;;23.87;20.03;;;18.60;99.90;;;;;;5032911;28;20503;-85
2022/10/29 00:05:03;;;;;;;26.60;21.50;;;18.60;99.90;;;;;;5019441;28;20846;-85
2022/10/29 00:07:30;;;;;;;22.90;18.90;;;18.60;99.90;;;;;;5024457;28;20455;-80
2022/10/29 00:09:57;;;;;;;24.43;18.27;;;18.60;99.90;;;;;;5029859;28;20556;-85
2022/10/29 00:12:24;;;;;;;24.17;16.37;;;18.60;99.90;;;;;;5015803;28;20528;-80
2022/10/29 00:14:54;;;;;;;18.77;14.83;;;18.60;99.90;;;;;;5024958;28;20468;-80
2022/10/29 00:17:21;;;;;;;21.73;17.27;;;18.60;99.90;;;;;;5016993;28;20847;-80
2022/10/29 00:19:50;;;;;;;20.67;16.30;;;18.50;99.90;;;;;;5016995;28;20458;-86
2022/10/29 00:22:20;;;;;;;17.60;13.17;;;18.50;99.90;;;;;;5024914;28;20518;-80
2022/10/29 00:24:47;;;;;;;21.17;15.00;;;18.50;99.90;;;;;;5025923;28;20531;-80
2022/10/29 00:27:14;;;;;;;16.73;13.20;;;18.50;99.90;;;;;;5016266;28;20531;-80
2022/10/29 00:29:41;;;;;;;16.90;11.90;;;18.50;99.90;;;;;;5026593;28;20491;-80
2022/10/29 00:32:09;;;;;;;16.83;13.50;;;18.50;99.90;;;;;;5023362;28;20966;-80
2022/10/29 00:34:36;;;;;;;21.53;18.27;;;18.50;99.90;;;;;;5009003;28;20471;-80
2022/10/29 00:37:05;;;;;;;31.20;21.57;;;18.50;99.90;;;;;;5031632;28;20551;-80
2022/10/29 00:39:33;;;;;;;30.00;24.20;;;18.50;99.90;;;;;;5015751;28;20537;-80
2022/10/29 00:42:00;;;;;;;26.13;20.77;;;18.50;99.90;;;;;;5025908;28;20981;-86
2022/10/29 00:44:34;;;;;;;23.33;18.10;;;18.50;99.90;;;;;;5019443;28;20465;-79
2022/10/29 00:47:16;;;;;;;21.33;15.13;;;18.50;99.90;;;;;;5017243;28;20725;-80
2022/10/29 00:49:46;;;;;;;21.73;18.50;;;18.50;99.90;;;;;;5026345;28;20476;-85
2022/10/29 00:52:16;;;;;;;18.90;16.70;;;18.40;99.90;;;;;;5017152;28;20504;-79
2022/10/29 00:54:47;;;;;;;20.10;16.87;;;18.40;99.90;;;;;;5024546;28;20503;-86
2022/10/29 00:57:19;;;;;;;21.60;14.40;;;18.40;99.90;;;;;;5023963;28;20481;-86
2022/10/29 00:59:48;;;;;;;22.13;15.93;;;18.40;99.90;;;;;;5022522;28;20480;-85
2022/10/29 01:02:24;;;;;;;16.23;14.50;;;18.40;99.90;;;;;;5014653;28;20481;-85
2022/10/29 01:04:53;;;;;;;14.00;12.10;;;18.40;99.90;;;;;;5027327;28;20455;-85
2022/10/29 01:07:22;;;;;;;14.80;12.27;;;18.40;99.90;;;;;;5043344;28;20472;-85
2022/10/29 01:09:50;;;;;;;13.00;11.37;;;18.40;99.90;;;;;;5022786;28;20467;-84
2022/10/29 01:12:46;;;;;;;16.07;14.40;;;18.40;99.90;;;;;;5036009;28;20501;-82
2022/10/29 01:15:21;;;;;;;19.53;16.20;;;18.40;99.90;;;;;;5001393;28;20458;-83
2022/10/29 01:18:09;;;;;;;16.80;13.57;;;18.40;99.90;;;;;;5031065;28;20522;-84
2022/10/29 01:21:01;;;;;;;14.77;11.57;;;18.40;99.90;;;;;;5020107;28;20475;-85
2022/10/29 01:24:03;;;;;;;12.37;10.50;;;18.30;99.90;;;;;;5021166;28;20530;-85
2022/10/29 01:26:49;;;;;;;11.20;9.73;;;18.30;99.90;;;;;;5003631;28;20514;-80
2022/10/29 01:29:35;;;;;;;11.57;8.27;;;18.30;99.90;;;;;;5027366;28;20476;-84
2022/10/29 01:32:10;;;;;;;7.50;6.80;;;18.30;99.90;;;;;;5031648;28;20546;-81
2022/10/29 01:34:43;;;;;;;6.53;5.90;;;18.30;99.90;;;;;;5021327;28;20495;-79
2022/10/29 01:37:17;;;;;;;6.60;6.00;;;18.20;99.90;;;;;;5028073;28;20483;-79
2022/10/29 01:39:52;;;;;;;5.77;5.30;;;18.20;99.90;;;;;;5020714;28;20461;-80
2022/10/29 01:42:27;;;;;;;6.43;5.83;;;18.20;99.90;;;;;;5025657;28;20476;-79
2022/10/29 01:45:02;;;;;;;6.40;5.40;;;18.20;99.90;;;;;;5018663;28;21028;-80
2022/10/29 01:47:37;;;;;;;7.60;5.70;;;18.20;99.90;;;;;;5027406;28;20483;-79
2022/10/29 01:50:08;;;;;;;8.50;6.33;;;18.20;99.90;;;;;;5019921;28;20500;-79
2022/10/29 01:52:47;;;;;;;7.63;5.20;;;18.10;99.90;;;;;;5026207;28;20482;-84
2022/10/29 01:55:19;;;;;;;7.93;6.47;;;18.10;99.90;;;;;;5025062;28;20475;-80
2022/10/29 01:57:46;;;;;;;6.87;5.77;;;18.10;99.90;;;;;;5022680;28;20457;-84
2022/10/29 02:00:22;;;;;;;6.70;6.03;;;18.10;99.90;;;;;;5042603;28;20563;-84
2022/10/29 02:03:01;;;;;;;5.73;5.27;;;18.10;99.90;;;;;;5042974;28;20542;-80
2022/10/29 02:05:33;;;;;;;5.50;5.00;;;18.10;99.90;;;;;;5011985;28;20466;-79
2022/10/29 02:08:13;;;;;;;5.27;4.77;;;18.10;99.90;;;;;;5027290;28;21000;-82
2022/10/29 02:10:48;;;;;;;7.43;5.67;;;18.00;99.90;;;;;;5035026;28;20542;-84
2022/10/29 02:13:19;;;;;;;6.90;5.87;;;18.00;99.90;;;;;;5041099;28;20531;-79
2022/10/29 02:15:49;;;;;;;7.97;6.30;;;18.00;99.90;;;;;;5034051;28;20452;-85
2022/10/29 02:18:18;;;;;;;8.80;5.83;;;18.00;99.90;;;;;;5041825;28;20482;-79
2022/10/29 02:20:46;;;;;;;7.70;6.57;;;18.00;99.90;;;;;;5030418;28;20476;-84
2022/10/29 02:23:18;;;;;;;5.10;4.60;;;18.00;99.90;;;;;;5028705;28;20496;-80
2022/10/29 02:25:45;;;;;;;8.80;5.70;;;17.90;99.90;;;;;;5035680;28;20483;-84
2022/10/29 02:28:12;;;;;;;7.90;6.27;;;17.90;99.90;;;;;;5035390;28;20471;-84
2022/10/29 02:30:39;;;;;;;6.33;5.73;;;17.90;99.90;;;;;;5039437;28;20475;-85
2022/10/29 02:33:06;;;;;;;9.70;6.00;;;17.90;99.90;;;;;;5035609;28;20853;-84
2022/10/29 02:35:35;;;;;;;13.83;6.70;;;17.90;99.90;;;;;;5027739;28;20471;-83
2022/10/29 02:38:02;;;;;;;6.40;5.80;;;17.90;99.90;;;;;;5026558;28;20464;-84
2022/10/29 02:40:29;;;;;;;7.83;5.47;;;17.90;99.90;;;;;;5030801;28;20485;-84
2022/10/29 02:42:56;;;;;;;8.00;5.57;;;17.90;99.90;;;;;;5027511;28;20858;-84
2022/10/29 02:45:23;;;;;;;12.10;6.07;;;17.90;99.90;;;;;;5024672;28;20898;-81
2022/10/29 02:47:50;;;;;;;8.97;5.33;;;17.90;99.90;;;;;;5029948;28;20491;-80
2022/10/29 02:50:17;;;;;;;6.83;5.50;;;17.90;99.90;;;;;;5019856;28;20854;-84
2022/10/29 02:52:46;;;;;;;5.37;4.87;;;17.80;99.90;;;;;;5028998;28;20537;-84
2022/10/29 02:55:13;;;;;;;8.50;5.97;;;17.80;99.90;;;;;;5025221;28;20870;-84
2022/10/29 02:57:43;;;;;;;5.40;4.90;;;17.80;99.90;;;;;;5021151;28;20473;-80
2022/10/29 03:00:11;;;;;;;8.77;6.30;;;17.80;99.90;;;;;;5031370;28;20784;-81
2022/10/29 03:02:38;;;;;;;9.60;6.13;;;17.80;99.90;;;;;;5026358;28;20479;-80
2022/10/29 03:05:06;;;;;;;8.73;6.90;;;17.80;99.90;;;;;;5009217;28;20540;-82
2022/10/29 03:07:36;;;;;;;7.40;5.83;;;17.80;99.90;;;;;;5015607;28;20468;-82
2022/10/29 03:10:12;;;;;;;8.03;6.90;;;17.80;99.90;;;;;;5026591;28;20500;-80
2022/10/29 03:12:39;;;;;;;10.70;7.87;;;17.80;99.90;;;;;;5028504;28;20472;-84
2022/10/29 03:15:07;;;;;;;10.93;8.87;;;17.80;99.90;;;;;;5017129;28;20860;-84
2022/10/29 03:17:34;;;;;;;9.53;7.90;;;17.80;99.90;;;;;;5026167;28;20473;-84
2022/10/29 03:20:01;;;;;;;9.73;7.60;;;17.80;99.90;;;;;;5021624;28;20625;-84
2022/10/29 03:22:38;;;;;;;7.63;6.90;;;17.90;99.90;;;;;;5019363;28;20587;-84
2022/10/29 03:25:08;;;;;;;12.73;8.20;;;17.90;99.90;;;;;;5023069;28;20513;-84
2022/10/29 03:27:41;;;;;;;7.83;6.70;;;17.90;99.90;;;;;;5020668;28;20467;-84
2022/10/29 03:30:09;;;;;;;8.73;7.53;;;17.90;99.90;;;;;;5029795;28;20454;-80
2022/10/29 03:32:40;;;;;;;10.23;6.43;;;17.90;99.90;;;;;;5020753;28;20480;-80
2022/10/29 03:35:08;;;;;;;8.33;6.40;;;17.90;99.90;;;;;;5025961;28;20483;-80
2022/10/29 03:37:35;;;;;;;8.50;6.60;;;17.90;99.90;;;;;;5028577;28;20473;-80
2022/10/29 03:40:02;;;;;;;8.50;6.83;;;17.90;99.90;;;;;;5025923;28;20521;-83
2022/10/29 03:42:34;;;;;;;7.43;6.43;;;17.90;99.90;;;;;;5021749;28;20492;-83
2022/10/29 03:45:02;;;;;;;8.50;6.97;;;17.90;99.90;;;;;;5021767;28;20924;-80
2022/10/29 03:47:29;;;;;;;7.47;6.77;;;17.90;99.90;;;;;;5027621;28;20540;-83
2022/10/29 03:50:02;;;;;;;8.83;6.03;;;17.90;99.90;;;;;;5028370;28;20476;-83
2022/10/29 03:52:30;;;;;;;9.53;6.60;;;17.90;99.90;;;;;;5021162;28;20476;-79
2022/10/29 03:54:56;;;;;;;8.77;6.07;;;17.90;99.90;;;;;;5020342;28;21033;-79
2022/10/29 03:57:24;;;;;;;7.27;5.97;;;17.90;99.90;;;;;;5026476;28;20502;-79
2022/10/29 03:59:52;;;;;;;6.80;4.57;;;17.90;99.90;;;;;;5027211;28;20467;-79
2022/10/29 04:02:19;;;;;;;5.50;5.00;;;17.90;99.90;;;;;;5021639;28;20500;-85
2022/10/29 04:04:46;;;;;;;7.87;5.63;;;17.90;99.90;;;;;;5021077;28;20477;-84
2022/10/29 04:07:13;;;;;;;5.00;4.70;;;17.90;99.90;;;;;;5029478;28;20468;-81
2022/10/29 04:09:42;;;;;;;6.37;5.70;;;17.90;99.90;;;;;;5013990;28;20469;-84
2022/10/29 04:12:10;;;;;;;5.43;4.87;;;17.90;99.90;;;;;;5027585;28;20550;-84
2022/10/29 04:14:44;;;;;;;5.93;5.40;;;17.80;99.90;;;;;;5022538;28;20471;-80
2022/10/29 04:17:13;;;;;;;5.13;4.63;;;17.80;99.90;;;;;;5027223;28;20476;-80
2022/10/29 04:19:40;;;;;;;6.20;5.57;;;17.80;99.90;;;;;;5023872;28;20487;-78
2022/10/29 04:22:07;;;;;;;6.70;5.53;;;17.80;99.90;;;;;;5019907;28;20479;-81
2022/10/29 04:24:36;;;;;;;6.17;5.47;;;17.80;99.90;;;;;;5027070;28;20484;-80
2022/10/29 04:27:03;;;;;;;6.43;5.70;;;17.80;99.90;;;;;;5020148;28;20501;-80
2022/10/29 04:29:30;;;;;;;6.60;5.70;;;17.80;99.90;;;;;;5029415;28;20509;-85
2022/10/29 04:31:57;;;;;;;6.10;5.50;;;17.80;99.90;;;;;;5029095;28;20542;-85
2022/10/29 04:34:26;;;;;;;5.57;5.00;;;17.80;99.90;;;;;;5024487;28;20468;-80
2022/10/29 04:36:53;;;;;;;7.87;6.10;;;17.80;99.90;;;;;;5019358;28;20511;-80
2022/10/29 04:39:22;;;;;;;6.27;5.20;;;17.80;99.90;;;;;;5023251;28;20482;-83
2022/10/29 04:41:52;;;;;;;6.40;5.57;;;17.80;99.90;;;;;;5031434;28;20477;-84
2022/10/29 04:44:20;;;;;;;5.57;5.07;;;17.80;99.90;;;;;;5008499;28;20531;-84
2022/10/29 04:46:47;;;;;;;6.37;5.77;;;17.80;99.90;;;;;;5005469;28;20533;-84
2022/10/29 04:49:14;;;;;;;7.30;4.73;;;17.80;99.90;;;;;;5006213;28;20473;-83
2022/10/29 04:51:49;;;;;;;5.90;4.50;;;17.80;99.90;;;;;;5007474;28;20543;-84
2022/10/29 04:54:18;;;;;;;6.90;6.20;;;17.70;99.90;;;;;;5007446;28;20470;-80
2022/10/29 04:56:45;;;;;;;6.63;6.00;;;17.70;99.90;;;;;;5002241;28;20484;-84
2022/10/29 04:59:12;;;;;;;6.50;5.90;;;17.70;99.90;;;;;;5006400;28;20485;-84
2022/10/29 05:01:39;;;;;;;6.30;5.27;;;17.70;99.90;;;;;;5006815;28;21074;-84
2022/10/29 05:04:06;;;;;;;7.10;5.80;;;17.70;99.90;;;;;;5006831;28;20507;-80
2022/10/29 05:06:34;;;;;;;6.17;5.50;;;17.70;99.90;;;;;;5003537;28;20473;-79
2022/10/29 05:09:05;;;;;;;5.93;5.30;;;17.70;99.90;;;;;;5002419;28;20977;-77
2022/10/29 05:11:32;;;;;;;4.97;4.50;;;17.70;99.90;;;;;;5007018;28;20519;-80
2022/10/29 05:13:59;;;;;;;6.77;5.87;;;17.60;99.90;;;;;;5012910;28;20477;-84
2022/10/29 05:16:26;;;;;;;6.33;5.30;;;17.60;99.90;;;;;;5001203;28;21030;-84
2022/10/29 05:18:53;;;;;;;5.87;5.27;;;17.60;99.90;;;;;;5009834;28;20989;-82
2022/10/29 05:21:20;;;;;;;6.50;5.27;;;17.60;99.90;;;;;;5011901;28;20463;-85
2022/10/29 05:23:51;;;;;;;7.03;6.20;;;17.60;99.90;;;;;;5007978;28;20480;-84
2022/10/29 05:26:19;;;;;;;10.47;6.50;;;17.60;99.90;;;;;;5012351;28;20466;-83
2022/10/29 05:28:50;;;;;;;7.30;6.37;;;17.60;99.90;;;;;;5009723;28;20528;-79
2022/10/29 05:31:17;;;;;;;6.20;5.70;;;17.60;99.90;;;;;;5004204;28;20479;-80
2022/10/29 05:33:44;;;;;;;7.00;5.20;;;17.60;99.90;;;;;;5004839;28;20550;-79
2022/10/29 05:36:12;;;;;;;7.13;5.43;;;17.60;99.90;;;;;;5014202;28;20479;-83
2022/10/29 05:38:39;;;;;;;7.10;6.27;;;17.60;99.90;;;;;;5014911;28;20548;-79
2022/10/29 05:41:08;;;;;;;6.90;6.00;;;17.60;99.90;;;;;;5011567;28;20500;-78
2022/10/29 05:43:36;;;;;;;6.83;6.13;;;17.60;99.90;;;;;;5015128;28;20552;-79
2022/10/29 05:46:04;;;;;;;8.40;7.50;;;17.60;99.90;;;;;;5017254;28;20964;-79
2022/10/29 05:48:31;;;;;;;10.97;8.43;;;17.60;99.90;;;;;;5017230;28;20468;-80
2022/10/29 05:51:00;;;;;;;11.90;6.90;;;17.60;99.90;;;;;;5016811;28;20492;-81
2022/10/29 05:53:27;;;;;;;11.23;7.77;;;17.60;99.90;;;;;;5017424;28;20480;-80
2022/10/29 05:55:54;;;;;;;18.30;11.77;;;17.50;99.90;;;;;;5018000;28;20486;-83
2022/10/29 05:58:21;;;;;;;11.17;10.07;;;17.50;99.90;;;;;;5020586;28;20482;-84
2022/10/29 06:00:50;;;;;;;11.93;10.50;;;17.50;99.90;;;;;;5022441;28;20478;-84
2022/10/29 06:03:18;;;;;;;9.80;8.60;;;17.50;99.90;;;;;;5021732;28;20535;-83
2022/10/29 06:05:47;;;;;;;8.77;7.87;;;17.50;99.90;;;;;;5030587;28;20470;-82
2022/10/29 06:08:14;;;;;;;7.63;6.83;;;17.40;99.90;;;;;;5040948;28;20525;-84
2022/10/29 06:10:42;;;;;;;15.60;7.53;;;17.50;99.90;;;;;;5038478;28;20521;-83
2022/10/29 06:13:12;;;;;;;8.07;7.00;;;17.50;99.90;;;;;;5037147;28;20506;-83
2022/10/29 06:15:41;;;;;;;7.67;6.37;;;17.50;99.90;;;;;;5029237;28;20501;-84
2022/10/29 06:18:09;;;;;;;8.57;5.80;;;17.50;99.90;;;;;;5017183;28;20471;-79
2022/10/29 06:20:38;;;;;;;7.27;6.10;;;17.50;99.90;;;;;;5017207;28;20470;-84
2022/10/29 06:23:06;;;;;;;7.83;6.03;;;17.40;99.90;;;;;;5019275;28;20670;-82
2022/10/29 06:25:33;;;;;;;6.90;6.20;;;17.40;99.90;;;;;;5016686;28;20460;-84
2022/10/29 06:28:01;;;;;;;7.97;5.77;;;17.40;99.90;;;;;;5016673;28;20875;-84
2022/10/29 06:30:29;;;;;;;7.70;5.63;;;17.40;99.90;;;;;;5031257;28;20517;-84
2022/10/29 06:32:56;;;;;;;7.77;5.60;;;17.40;99.90;;;;;;5036701;28;20478;-79
2022/10/29 06:35:25;;;;;;;8.30;5.50;;;17.40;99.90;;;;;;5035129;28;20471;-79
2022/10/29 06:37:52;;;;;;;8.73;5.40;;;17.40;99.90;;;;;;5035668;28;21012;-79
2022/10/29 06:40:20;;;;;;;8.20;5.40;;;17.40;99.90;;;;;;5035321;28;20471;-79
2022/10/29 06:42:47;;;;;;;7.10;5.13;;;17.40;99.90;;;;;;5036313;28;20537;-82
2022/10/29 06:45:25;;;;;;;;;;;;;;;;;;;;;
2022/10/29 06:47:52;;;;;;;6.40;5.80;;;17.40;99.90;;;;;;5033476;28;20470;-80
2022/10/29 06:50:20;;;;;;;4.93;4.53;;;17.50;99.90;;;;;;5035593;28;20475;-80
2022/10/29 06:53:16;;;;;;;7.77;5.70;;;17.40;99.90;;;;;;5036056;28;20498;-83
2022/10/29 06:55:46;;;;;;;7.57;6.73;;;17.40;99.90;;;;;;5035608;28;20538;-84
2022/10/29 06:58:15;;;;;;;9.30;6.77;;;17.40;99.90;;;;;;5037495;28;20467;-84
2022/10/29 07:00:43;;;;;;;8.70;7.40;;;17.50;99.90;;;;;;5035881;28;20538;-79
2022/10/29 07:03:13;;;;;;;8.40;5.47;;;17.50;99.90;;;;;;5035727;28;20525;-85
2022/10/29 07:05:40;;;;;;;7.00;6.37;;;17.50;99.90;;;;;;5024340;28;20523;-79
2022/10/29 07:08:08;;;;;;;9.27;7.23;;;17.50;99.90;;;;;;5015028;28;20970;-79
2022/10/29 07:10:37;;;;;;;6.97;6.37;;;17.50;99.90;;;;;;5015256;28;20483;-80
2022/10/29 07:13:04;;;;;;;9.33;7.17;;;17.50;99.90;;;;;;5016688;28;20500;-84
2022/10/29 07:18:15;;;;;;;9.33;5.70;;;17.50;99.90;;;;;;4987346;28;20751;-84
2022/10/29 07:20:44;;;;;;;8.60;6.27;;;17.50;99.90;;;;;;5016309;28;20538;-83
2022/10/29 07:23:12;;;;;;;9.27;7.10;;;17.50;99.90;;;;;;5017600;28;20870;-83
2022/10/29 07:25:41;;;;;;;7.13;5.30;;;17.50;99.90;;;;;;5015627;28;20532;-84
2022/10/29 07:28:12;;;;;;;6.10;5.60;;;17.60;99.90;;;;;;5015058;28;20500;-84
2022/10/29 07:30:39;;;;;;;8.20;5.70;;;17.60;99.90;;;;;;5033145;28;20521;-79
2022/10/29 07:33:08;;;;;;;7.70;6.03;;;17.60;99.90;;;;;;5034501;28;20470;-80
2022/10/29 07:35:35;;;;;;;6.47;5.23;;;17.60;99.90;;;;;;5032906;28;20459;-79
2022/10/29 07:38:03;;;;;;;5.17;4.77;;;17.60;99.90;;;;;;5034256;28;20574;-80
2022/10/29 07:40:30;;;;;;;6.90;5.27;;;17.60;99.90;;;;;;5033531;28;20560;-80
2022/10/29 07:42:59;;;;;;;7.03;5.60;;;17.60;99.90;;;;;;5022187;28;20885;-79
2022/10/29 07:45:27;;;;;;;6.03;4.80;;;17.70;99.90;;;;;;5014335;28;20951;-80
2022/10/29 07:48:01;;;;;;;7.80;6.30;;;17.70;99.90;;;;;;5014835;28;20531;-80
2022/10/29 07:50:28;;;;;;;7.17;5.90;;;17.70;99.90;;;;;;5017470;28;20905;-80
2022/10/29 07:52:55;;;;;;;6.47;5.87;;;17.70;99.90;;;;;;5013688;28;20468;-80
2022/10/29 07:55:28;;;;;;;9.77;5.90;;;17.80;99.90;;;;;;5003391;28;20495;-80
2022/10/29 07:58:01;;;;;;;7.13;6.00;;;17.80;99.90;;;;;;5014993;28;20471;-84
2022/10/29 08:00:37;;;;;;;9.07;8.07;;;17.80;99.90;;;;;;4999224;28;20476;-80
2022/10/29 08:03:05;;;;;;;7.03;6.20;;;17.80;99.90;;;;;;5012106;28;20492;-80
2022/10/29 08:05:35;;;;;;;6.07;5.47;;;17.90;99.90;;;;;;5004798;28;20483;-80
2022/10/29 08:08:02;;;;;;;7.37;6.30;;;17.90;99.90;;;;;;5004132;28;20527;-80
2022/10/29 08:10:33;;;;;;;8.10;7.30;;;17.90;99.90;;;;;;4995990;28;20884;-79
2022/10/29 08:13:09;;;;;;;9.80;6.67;;;17.90;99.90;;;;;;5014201;28;20469;-84
2022/10/29 08:15:56;;;;;;;10.23;6.60;;;18.00;99.90;;;;;;5002689;28;20469;-80
2022/10/29 08:18:23;;;;;;;8.73;6.53;;;18.00;99.90;;;;;;5014272;28;20476;-79
2022/10/29 08:20:50;;;;;;;7.83;5.40;;;18.00;99.90;;;;;;5013804;28;20576;-79
2022/10/29 08:23:23;;;;;;;7.10;5.97;;;18.00;99.90;;;;;;5013325;28;20907;-80
2022/10/29 08:25:55;;;;;;;11.00;7.10;;;18.10;99.90;;;;;;5015878;28;20465;-85
2022/10/29 08:28:32;;;;;;;8.20;6.33;;;18.10;99.90;;;;;;5005990;28;20477;-85
2022/10/29 08:31:07;;;;;;;10.23;8.30;;;18.10;99.90;;;;;;5034087;28;20471;-84
2022/10/29 08:33:34;;;;;;;7.90;7.10;;;18.20;99.90;;;;;;5023267;28;20488;-79
2022/10/29 08:36:02;;;;;;;9.67;8.00;;;18.20;99.90;;;;;;5035028;28;20475;-79
2022/10/29 08:38:29;;;;;;;9.37;7.23;;;18.20;99.90;;;;;;5034216;28;20958;-80
2022/10/29 08:41:23;;;;;;;9.30;7.90;;;18.30;99.90;;;;;;5024877;28;20468;-83
2022/10/29 08:44:24;;;;;;;10.00;8.30;;;18.30;99.90;;;;;;5007428;28;20461;-84
2022/10/29 08:46:56;;;;;;;9.13;8.20;;;18.40;99.90;;;;;;5013469;28;20461;-84
2022/10/29 08:49:31;;;;;;;10.73;8.30;;;18.40;99.90;;;;;;5015794;28;20559;-83
2022/10/29 08:52:04;;;;;;;10.20;8.53;;;18.40;99.90;;;;;;5013443;28;20532;-78
2022/10/29 08:54:35;;;;;;;10.77;8.80;;;18.50;99.90;;;;;;5014315;28;20872;-79
2022/10/29 08:57:06;;;;;;;14.13;8.73;;;18.50;99.90;;;;;;5016200;28;20476;-79
2022/10/29 08:59:44;;;;;;;8.30;6.67;;;18.50;99.90;;;;;;5015661;28;20803;-80
2022/10/29 09:02:18;;;;;;;10.67;7.40;;;18.50;99.90;;;;;;5015758;28;20457;-80
2022/10/29 09:04:47;;;;;;;8.83;7.40;;;18.60;99.90;;;;;;5008363;28;20572;-79
2022/10/29 09:07:29;;;;;;;10.57;9.47;;;18.60;99.90;;;;;;5005170;28;20926;-79
2022/10/29 09:10:04;;;;;;;13.37;9.00;;;18.70;99.90;;;;;;5011933;28;20556;-79
2022/10/29 09:12:59;;;;;;;11.80;9.30;;;18.70;99.90;;;;;;5013393;28;20460;-80
2022/10/29 09:15:42;;;;;;;10.47;8.73;;;18.70;99.90;;;;;;5012843;28;20539;-80
2022/10/29 09:18:24;;;;;;;12.03;7.70;;;18.70;99.90;;;;;;5012888;28;20473;-80
2022/10/29 09:20:55;;;;;;;9.70;8.80;;;18.80;99.90;;;;;;5014386;28;20496;-84
2022/10/29 09:23:35;;;;;;;13.23;9.60;;;18.80;99.90;;;;;;5016605;28;20975;-84
2022/10/29 09:26:06;;;;;;;13.67;8.33;;;18.80;99.90;;;;;;5015012;28;20531;-83
2022/10/29 09:28:45;;;;;;;11.20;9.03;;;18.90;99.90;;;;;;5014773;28;20471;-85
2022/10/29 09:31:27;;;;;;;12.27;9.20;;;18.90;99.90;;;;;;4981648;28;20478;-80
2022/10/29 09:34:03;;;;;;;19.00;11.20;;;18.90;99.90;;;;;;4993170;28;20532;-80
2022/10/29 09:36:31;;;;;;;11.63;9.10;;;19.00;99.90;;;;;;4992245;28;20466;-84
2022/10/29 09:39:03;;;;;;;14.83;10.70;;;19.00;99.90;;;;;;4993469;28;20976;-84
2022/10/29 09:41:33;;;;;;;13.20;9.53;;;19.00;99.90;;;;;;4993266;28;20451;-83
2022/10/29 09:44:06;;;;;;;10.40;8.27;;;19.10;99.90;;;;;;4994548;28;20515;-84
2022/10/29 09:46:40;;;;;;;10.47;8.27;;;19.10;99.90;;;;;;4994748;28;20812;-84
2022/10/29 09:49:25;;;;;;;9.93;8.23;;;19.10;99.90;;;;;;4994403;28;20999;-84
2022/10/29 09:52:00;;;;;;;11.13;8.60;;;19.20;99.90;;;;;;4993201;28;20481;-80
2022/10/29 09:54:32;;;;;;;9.10;7.33;;;19.20;99.90;;;;;;4992721;28;20536;-79
2022/10/29 09:57:06;;;;;;;14.33;9.90;;;19.30;99.90;;;;;;4993314;28;20563;-83
2022/10/29 09:59:36;;;;;;;15.97;11.43;;;19.30;99.90;;;;;;4993207;28;20956;-80
2022/10/29 10:02:24;;;;;;;12.67;9.73;;;19.40;99.90;;;;;;5002126;28;20505;-84
2022/10/29 10:04:55;;;;;;;13.47;10.20;;;19.40;99.90;;;;;;5002162;28;21031;-79
2022/10/29 10:07:23;;;;;;;12.00;8.80;;;19.40;99.90;;;;;;4995395;28;20533;-79
2022/10/29 10:09:55;;;;;;;13.40;9.37;;;19.50;99.90;;;;;;4992868;28;20488;-83
2022/10/29 10:12:25;;;;;;;10.40;8.33;;;19.50;99.90;;;;;;4996446;28;20529;-80
2022/10/29 10:15:19;;;;;;;12.00;8.43;;;19.50;99.90;;;;;;5000899;28;20505;-84
2022/10/29 10:17:57;;;;;;;8.73;7.17;;;19.60;99.90;;;;;;5020564;28;20477;-85
2022/10/29 10:20:35;;;;;;;14.00;8.33;;;19.60;99.90;;;;;;5035778;28;20463;-85
2022/10/29 10:23:26;;;;;;;13.80;8.07;;;19.60;99.90;;;;;;5042617;28;20534;-84
2022/10/29 10:25:58;;;;;;;8.33;6.83;;;19.60;99.90;;;;;;5039929;28;20465;-80
2022/10/29 10:28:28;;;;;;;7.83;6.77;;;19.70;99.90;;;;;;5035934;28;20875;-80
2022/10/29 10:31:11;;;;;;;13.20;6.63;;;19.70;99.90;;;;;;5016994;28;20466;-80
2022/10/29 10:34:05;;;;;;;11.73;8.20;;;19.70;99.90;;;;;;5005237;28;20490;-80
2022/10/29 10:36:40;;;;;;;9.73;7.37;;;19.80;99.90;;;;;;5015320;28;20537;-79
2022/10/29 10:39:27;;;;;;;11.20;7.43;;;19.80;99.90;;;;;;5015750;28;20485;-79
2022/10/29 10:41:56;;;;;;;8.70;6.43;;;19.80;99.90;;;;;;5017807;28;20488;-80
2022/10/29 10:44:24;;;;;;;13.40;7.13;;;19.90;99.90;;;;;;5002990;28;20485;-78
2022/10/29 10:46:54;;;;;;;8.60;6.40;;;19.90;99.90;;;;;;5015956;28;20476;-79
2022/10/29 10:49:31;;;;;;;16.93;6.40;;;19.90;99.90;;;;;;5014651;28;20467;-79
2022/10/29 10:52:01;;;;;;;8.83;6.20;;;19.90;99.90;;;;;;5014172;28;20975;-79
2022/10/29 10:54:40;;;;;;;10.73;7.80;;;19.90;99.90;;;;;;5019254;28;20535;-85
2022/10/29 10:57:21;;;;;;;11.63;7.63;;;19.90;99.90;;;;;;5016892;28;20468;-80
2022/10/29 10:59:57;;;;;;;13.23;7.97;;;19.80;99.90;;;;;;5017197;28;20572;-79
2022/10/29 11:02:52;;;;;;;10.00;6.70;;;19.80;99.90;;;;;;5016288;28;20470;-80
2022/10/29 11:05:22;;;;;;;11.13;6.60;;;19.80;99.90;;;;;;5016271;28;20967;-78
2022/10/29 11:07:57;;;;;;;7.83;5.93;;;19.80;99.90;;;;;;5015956;28;20500;-79
2022/10/29 11:10:30;;;;;;;11.23;7.33;;;19.80;99.90;;;;;;5014222;28;20468;-83
2022/10/29 11:13:05;;;;;;;8.50;6.87;;;19.80;99.90;;;;;;5015760;28;20469;-83
2022/10/29 11:15:50;;;;;;;8.70;6.97;;;19.80;99.90;;;;;;5015530;28;20516;-84
2022/10/29 11:18:20;;;;;;;8.03;7.17;;;19.80;99.90;;;;;;5015471;28;20499;-85
2022/10/29 11:20:58;;;;;;;9.30;8.40;;;19.80;99.90;;;;;;5014806;28;20476;-84
2022/10/29 11:23:31;;;;;;;9.60;7.47;;;19.80;99.90;;;;;;5014450;28;20472;-85
2022/10/29 11:26:15;;;;;;;10.00;8.27;;;19.80;99.90;;;;;;4991014;28;20468;-81
2022/10/29 11:28:51;;;;;;;8.67;7.23;;;19.80;99.90;;;;;;5006571;28;20492;-80
2022/10/29 11:31:24;;;;;;;12.00;7.30;;;19.90;99.90;;;;;;5015008;28;20769;-80
2022/10/29 11:34:01;;;;;;;8.13;6.97;;;19.90;99.90;;;;;;5014583;28;20539;-80
2022/10/29 11:36:34;;;;;;;11.00;7.57;;;19.90;99.90;;;;;;5013653;28;20648;-80
2022/10/29 11:39:16;;;;;;;9.13;7.77;;;19.90;99.90;;;;;;5017411;28;20510;-79
2022/10/29 11:41:48;;;;;;;8.73;7.57;;;19.80;99.90;;;;;;5004900;28;20543;-81
2022/10/29 11:44:21;;;;;;;12.43;9.87;;;19.80;99.90;;;;;;5004794;28;20824;-79
2022/10/29 11:47:15;;;;;;;10.40;9.30;;;19.80;99.90;;;;;;5014683;28;20473;-79
2022/10/29 11:50:06;;;;;;;14.60;9.53;;;19.80;99.90;;;;;;5014439;28;20459;-80
2022/10/29 11:52:45;;;;;;;10.53;9.27;;;19.80;99.90;;;;;;5014967;28;20560;-80
2022/10/29 11:55:23;;;;;;;11.20;8.57;;;19.80;99.90;;;;;;5014875;28;20475;-79
2022/10/29 11:57:55;;;;;;;14.73;8.90;;;19.80;99.90;;;;;;5013454;28;20813;-80
2022/10/29 12:00:24;;;;;;;10.77;9.67;;;19.70;99.90;;;;;;5013877;28;20481;-80
2022/10/29 12:03:24;;;;;;;10.60;9.50;;;19.70;99.90;;;;;;5013232;28;20481;-79
2022/10/29 12:06:02;;;;;;;16.07;11.97;;;19.70;99.90;;;;;;5013340;28;20503;-80
2022/10/29 12:08:48;;;;;;;12.93;11.40;;;19.70;99.90;;;;;;5013940;28;20561;-84
2022/10/29 12:11:27;;;;;;;12.40;10.90;;;19.80;99.90;;;;;;5003703;28;20484;-80
2022/10/29 12:14:07;;;;;;;12.13;10.20;;;19.70;99.90;;;;;;5013331;28;20461;-80
2022/10/29 12:16:48;;;;;;;13.00;9.10;;;19.70;99.90;;;;;;5012705;28;20477;-80
2022/10/29 12:19:30;;;;;;;13.90;9.80;;;19.80;99.90;;;;;;5013883;28;20543;-79
2022/10/29 12:22:08;;;;;;;10.60;9.23;;;19.80;99.90;;;;;;5013578;28;20469;-79
2022/10/29 12:25:22;;;;;;;12.60;9.60;;;19.80;99.90;;;;;;5012853;28;20475;-80
2022/10/29 12:27:57;;;;;;;12.13;9.73;;;19.80;99.90;;;;;;5013391;28;20477;-79
2022/10/29 12:30:24;;;;;;;11.63;10.40;;;19.80;99.90;;;;;;5027035;28;20561;-80
2022/10/29 12:32:59;;;;;;;10.40;9.33;;;19.90;99.90;;;;;;5030433;28;20480;-79
2022/10/29 12:35:32;;;;;;;13.77;8.10;;;19.90;99.90;;;;;;5033668;28;20533;-80
2022/10/29 12:38:12;;;;;;;8.97;7.13;;;19.90;99.90;;;;;;5020554;28;20615;-80
2022/10/29 12:40:44;;;;;;;13.13;9.17;;;20.00;99.90;;;;;;5025495;28;20464;-80
2022/10/29 12:43:25;;;;;;;13.67;9.47;;;20.00;99.90;;;;;;5022582;28;20916;-80
2022/10/29 12:46:03;;;;;;;10.83;9.23;;;20.00;99.90;;;;;;5032822;28;20534;-80
2022/10/29 12:48:39;;;;;;;12.37;8.70;;;20.00;99.90;;;;;;5033793;28;20483;-78
2022/10/29 12:51:13;;;;;;;10.47;8.57;;;20.00;99.90;;;;;;5035482;28;20531;-80
2022/10/29 12:54:22;;;;;;;9.83;7.67;;;20.00;99.90;;;;;;5028578;28;20476;-80
2022/10/29 12:56:55;;;;;;;10.60;8.50;;;20.00;99.90;;;;;;4961922;28;21075;-79
2022/10/29 12:59:33;;;;;;;8.73;7.40;;;20.00;99.90;;;;;;5003147;28;20571;-79
2022/10/29 13:02:43;;;;;;;12.13;8.30;;;20.00;99.90;;;;;;5017434;28;20469;-84
2022/10/29 13:05:32;;;;;;;9.43;7.07;;;20.00;99.90;;;;;;5013828;28;20463;-84
2022/10/29 13:08:35;;;;;;;12.73;9.30;;;20.00;99.90;;;;;;5015150;28;20508;-84
2022/10/29 13:11:18;;;;;;;9.63;7.60;;;19.90;99.90;;;;;;5014663;28;20534;-86
2022/10/29 13:13:59;;;;;;;8.70;7.23;;;20.00;99.90;;;;;;5004549;28;20501;-84